Time;durP1;ratioP1;P1;durP2;ratioP2;P2;SDS_P1;SDS_P2;PMS_P1;PMS_P2;Temp;Humidity;BMP_temperature;BMP_pressure;BME280_temperature;BME280_humidity;BME280_pressure;Samples;Min_cycle;Max_cycle;Signal;HPM_P1;HPM_P2
2023/12/13 00:01:56;;;;;;;59.63;39.67;;;;;;;;;;5587761;31;35057;-76
2023/12/13 00:04:58;;;;;;;64.97;41.85;;;;;;;;;;5587832;31;34411;-76
2023/12/13 00:08:01;;;;;;;71.43;43.25;;;;;;;;;;5587483;31;34614;-76
2023/12/13 00:11:03;;;;;;;65.53;42.62;;;;;;;;;;5587719;31;34564;-75
2023/12/13 00:14:07;;;;;;;69.80;45.30;;;;;;;;;;5587460;31;34486;-76
2023/12/13 00:17:14;;;;;;;61.95;42.28;;;;;;;;;;5586429;31;34263;-76
2023/12/13 00:20:16;;;;;;;70.50;44.47;;;;;;;;;;5587421;31;32561;-76
2023/12/13 00:23:19;;;;;;;66.57;44.22;;;;;;;;;;5587110;31;35398;-76
2023/12/13 00:26:24;;;;;;;69.90;45.08;;;;;;;;;;5587331;31;35144;-75
2023/12/13 00:29:27;;;;;;;64.60;43.53;;;;;;;;;;5589744;31;34461;-75
2023/12/13 00:32:30;;;;;;;68.47;46.42;;;;;;;;;;5589788;31;34604;-75
2023/12/13 00:35:32;;;;;;;66.72;46.17;;;;;;;;;;5589648;31;35064;-75
2023/12/13 00:38:35;;;;;;;68.20;47.13;;;;;;;;;;5590106;31;35057;-75
2023/12/13 00:41:38;;;;;;;68.90;47.97;;;;;;;;;;5589735;31;35109;-76
2023/12/13 00:44:40;;;;;;;65.78;47.05;;;;;;;;;;5589980;31;35005;-76
2023/12/13 00:47:43;;;;;;;69.75;48.40;;;;;;;;;;5589593;31;34390;-76
2023/12/13 00:50:46;;;;;;;63.67;47.60;;;;;;;;;;5589637;31;34230;-76
2023/12/13 00:53:49;;;;;;;77.62;52.13;;;;;;;;;;5589584;31;34478;-76
2023/12/13 00:56:51;;;;;;;65.03;48.33;;;;;;;;;;5589581;31;34384;-76
2023/12/13 00:59:54;;;;;;;66.78;48.05;;;;;;;;;;5589523;31;35058;-76
2023/12/13 01:02:57;;;;;;;73.07;50.40;;;;;;;;;;5589610;31;34427;-77
2023/12/13 01:06:00;;;;;;;72.72;50.08;;;;;;;;;;5589505;31;34486;-77
2023/12/13 01:09:03;;;;;;;71.35;50.22;;;;;;;;;;5589639;31;35212;-77
2023/12/13 01:12:06;;;;;;;77.40;54.47;;;;;;;;;;5589416;31;34364;-76
2023/12/13 01:15:10;;;;;;;78.15;50.72;;;;;;;;;;5589227;31;35030;-76
2023/12/13 01:18:12;;;;;;;81.97;54.03;;;;;;;;;;5589433;31;35037;-76
2023/12/13 01:21:15;;;;;;;66.35;47.28;;;;;;;;;;5589772;31;34454;-76
2023/12/13 01:24:18;;;;;;;72.62;49.75;;;;;;;;;;5588434;31;35380;-76
2023/12/13 01:27:20;;;;;;;73.57;50.33;;;;;;;;;;5589340;31;35018;-76
2023/12/13 01:30:25;;;;;;;83.05;51.50;;;;;;;;;;5589093;31;35067;-76
2023/12/13 01:33:27;;;;;;;78.18;52.28;;;;;;;;;;5589131;31;35026;-76
2023/12/13 01:36:30;;;;;;;72.62;50.05;;;;;;;;;;5589183;31;34991;-76
2023/12/13 01:39:33;;;;;;;75.05;49.72;;;;;;;;;;5588980;31;34628;-76
2023/12/13 01:42:38;;;;;;;65.20;47.38;;;;;;;;;;5589480;31;34926;-76
2023/12/13 01:45:41;;;;;;;70.18;48.33;;;;;;;;;;5589231;31;34273;-76
2023/12/13 01:48:44;;;;;;;75.90;50.08;;;;;;;;;;5589054;31;34577;-76
2023/12/13 01:51:46;;;;;;;63.83;45.63;;;;;;;;;;5589000;31;34185;-76
2023/12/13 01:54:49;;;;;;;67.10;47.38;;;;;;;;;;5588753;31;35303;-76
2023/12/13 01:57:52;;;;;;;64.75;45.03;;;;;;;;;;5589312;31;35133;-77
2023/12/13 02:00:55;;;;;;;67.95;46.70;;;;;;;;;;5589031;31;35040;-77
2023/12/13 02:03:58;;;;;;;56.65;43.38;;;;;;;;;;5589352;31;34456;-76
2023/12/13 02:07:01;;;;;;;66.28;46.67;;;;;;;;;;5588898;31;34622;-77
2023/12/13 02:10:04;;;;;;;70.20;48.05;;;;;;;;;;5589086;31;34253;-77
2023/12/13 02:13:07;;;;;;;66.25;47.58;;;;;;;;;;5588948;31;34649;-76
2023/12/13 02:16:09;;;;;;;66.12;46.85;;;;;;;;;;5588713;31;35115;-76
2023/12/13 02:19:12;;;;;;;59.28;43.58;;;;;;;;;;5588803;31;34275;-77
2023/12/13 02:22:15;;;;;;;59.15;44.03;;;;;;;;;;5588749;31;34589;-76
2023/12/13 02:25:50;;;;;;;56.78;42.25;;;;;;;;;;5588748;31;34597;-76
2023/12/13 02:28:54;;;;;;;53.30;40.92;;;;;;;;;;5554137;31;34442;-76
2023/12/13 02:31:56;;;;;;;51.70;40.38;;;;;;;;;;5588714;31;34309;-76
2023/12/13 02:34:59;;;;;;;54.80;40.97;;;;;;;;;;5588730;31;34585;-76
2023/12/13 02:38:02;;;;;;;51.53;38.80;;;;;;;;;;5588683;31;34419;-76
2023/12/13 02:41:04;;;;;;;53.30;38.50;;;;;;;;;;5588724;31;34119;-76
2023/12/13 02:44:07;;;;;;;53.58;39.05;;;;;;;;;;5588485;31;34371;-75
2023/12/13 02:47:10;;;;;;;49.58;36.58;;;;;;;;;;5588806;31;34670;-74
2023/12/13 02:50:13;;;;;;;42.62;34.25;;;;;;;;;;5587638;31;35376;-73
2023/12/13 02:53:16;;;;;;;47.88;36.28;;;;;;;;;;5588459;31;35265;-74
2023/12/13 02:56:18;;;;;;;42.88;33.30;;;;;;;;;;5588435;31;35356;-74
2023/12/13 02:59:21;;;;;;;40.10;32.50;;;;;;;;;;5588419;31;35268;-73
2023/12/13 03:02:24;;;;;;;47.62;34.30;;;;;;;;;;5588229;31;34497;-73
2023/12/13 03:05:26;;;;;;;43.58;33.88;;;;;;;;;;5588339;31;35416;-72
2023/12/13 03:08:29;;;;;;;42.35;34.15;;;;;;;;;;5588318;31;35322;-72
2023/12/13 03:11:32;;;;;;;45.97;34.53;;;;;;;;;;5588477;31;34799;-72
2023/12/13 03:14:35;;;;;;;43.85;33.80;;;;;;;;;;5588342;31;35243;-72
2023/12/13 03:17:37;;;;;;;40.30;32.67;;;;;;;;;;5586722;31;34575;-72
2023/12/13 03:20:41;;;;;;;44.75;34.08;;;;;;;;;;5586751;31;35582;-71
2023/12/13 03:23:43;;;;;;;44.47;32.80;;;;;;;;;;5586703;31;35290;-71
2023/12/13 03:26:46;;;;;;;46.25;32.05;;;;;;;;;;5586728;31;34674;-72
2023/12/13 03:29:49;;;;;;;42.03;30.12;;;;;;;;;;5586486;31;35328;-72
2023/12/13 03:32:52;;;;;;;38.65;29.37;;;;;;;;;;5586925;31;34687;-72
2023/12/13 03:35:55;;;;;;;39.95;30.20;;;;;;;;;;5586883;31;34546;-72
2023/12/13 03:38:58;;;;;;;40.45;29.15;;;;;;;;;;5586591;31;35399;-72
2023/12/13 03:42:00;;;;;;;41.55;30.08;;;;;;;;;;5586583;31;34500;-72
2023/12/13 03:45:03;;;;;;;41.20;29.87;;;;;;;;;;5586515;31;34703;-72
2023/12/13 03:48:05;;;;;;;44.30;31.65;;;;;;;;;;5586391;31;35320;-72
2023/12/13 03:51:09;;;;;;;42.95;30.42;;;;;;;;;;5586653;31;34998;-72
2023/12/13 03:54:13;;;;;;;41.20;29.05;;;;;;;;;;5586352;31;34647;-71
2023/12/13 03:57:17;;;;;;;42.03;29.33;;;;;;;;;;5586513;31;34639;-72
2023/12/13 04:00:20;;;;;;;39.15;29.20;;;;;;;;;;5586088;31;35368;-72
2023/12/13 04:03:23;;;;;;;38.47;26.85;;;;;;;;;;5584364;31;35441;-73
2023/12/13 04:06:26;;;;;;;35.20;26.17;;;;;;;;;;5586111;31;34785;-72
2023/12/13 04:09:29;;;;;;;35.38;26.80;;;;;;;;;;5586136;31;34802;-72
2023/12/13 04:12:31;;;;;;;38.40;27.10;;;;;;;;;;5586136;31;34573;-72
2023/12/13 04:15:34;;;;;;;38.13;27.25;;;;;;;;;;5582241;31;129908;-73
2023/12/13 04:18:37;;;;;;;39.85;27.87;;;;;;;;;;5587444;31;34756;-72
2023/12/13 04:21:40;;;;;;;37.95;26.17;;;;;;;;;;5586562;31;34597;-70
2023/12/13 04:24:43;;;;;;;39.03;28.00;;;;;;;;;;5587091;31;35344;-70
2023/12/13 04:27:47;;;;;;;37.40;27.48;;;;;;;;;;5587074;31;35317;-70
2023/12/13 04:30:49;;;;;;;41.13;29.12;;;;;;;;;;5587297;31;34612;-70
2023/12/13 04:33:52;;;;;;;45.28;28.98;;;;;;;;;;5586797;31;35342;-70
2023/12/13 04:36:55;;;;;;;45.03;29.40;;;;;;;;;;5586680;31;35347;-71
2023/12/13 04:39:58;;;;;;;43.22;29.35;;;;;;;;;;5587155;31;34690;-70
2023/12/13 04:43:01;;;;;;;44.88;29.85;;;;;;;;;;5586750;31;34746;-70
2023/12/13 04:46:05;;;;;;;50.80;31.00;;;;;;;;;;5586694;31;35358;-71
2023/12/13 04:49:07;;;;;;;43.72;29.83;;;;;;;;;;5587062;31;35299;-71
2023/12/13 04:52:10;;;;;;;40.65;29.23;;;;;;;;;;5586842;31;35419;-70
2023/12/13 04:55:15;;;;;;;42.22;28.60;;;;;;;;;;5586526;31;35364;-70
2023/12/13 04:58:18;;;;;;;40.28;28.10;;;;;;;;;;5586446;31;34655;-70
2023/12/13 05:01:21;;;;;;;36.15;26.08;;;;;;;;;;5586517;31;34642;-70
2023/12/13 05:04:24;;;;;;;43.80;27.52;;;;;;;;;;5586644;31;34693;-71
2023/12/13 05:07:28;;;;;;;33.65;25.10;;;;;;;;;;5586564;31;34829;-71
2023/12/13 05:10:32;;;;;;;35.45;25.42;;;;;;;;;;5586144;31;35365;-71
2023/12/13 05:13:35;;;;;;;31.67;24.40;;;;;;;;;;5587189;31;34667;-73
2023/12/13 05:16:37;;;;;;;32.92;23.77;;;;;;;;;;5589130;31;34682;-74
2023/12/13 05:19:40;;;;;;;30.75;22.58;;;;;;;;;;5589313;31;34735;-74
2023/12/13 05:22:43;;;;;;;26.95;21.52;;;;;;;;;;5589555;31;34670;-73
2023/12/13 05:25:45;;;;;;;29.60;22.30;;;;;;;;;;5589032;31;34624;-73
2023/12/13 05:28:48;;;;;;;25.95;21.15;;;;;;;;;;5589212;31;34462;-73
2023/12/13 05:31:51;;;;;;;25.40;21.55;;;;;;;;;;5589125;31;34761;-73
2023/12/13 05:34:58;;;;;;;23.65;20.55;;;;;;;;;;5589392;31;35339;-74
2023/12/13 05:38:01;;;;;;;30.12;21.35;;;;;;;;;;5589087;31;35299;-75
2023/12/13 05:41:04;;;;;;;24.45;20.45;;;;;;;;;;5589443;31;34617;-75
2023/12/13 05:44:07;;;;;;;26.30;21.50;;;;;;;;;;5589020;31;35447;-73
2023/12/13 05:47:10;;;;;;;24.87;20.08;;;;;;;;;;5588882;31;34543;-74
2023/12/13 05:50:12;;;;;;;23.75;19.10;;;;;;;;;;5589065;31;34872;-73
2023/12/13 05:53:15;;;;;;;23.10;18.98;;;;;;;;;;5589146;31;34711;-74
2023/12/13 05:56:17;;;;;;;22.00;18.87;;;;;;;;;;5589040;31;35442;-74
2023/12/13 05:59:22;;;;;;;24.95;20.08;;;;;;;;;;5588385;31;34625;-75
2023/12/13 06:02:24;;;;;;;23.05;18.40;;;;;;;;;;5588869;31;34608;-75
2023/12/13 06:05:27;;;;;;;19.33;16.75;;;;;;;;;;5589314;31;34531;-75
2023/12/13 06:08:29;;;;;;;19.77;16.83;;;;;;;;;;5588660;31;34796;-74
2023/12/13 06:11:32;;;;;;;19.52;17.27;;;;;;;;;;5588707;31;35450;-74
2023/12/13 06:14:34;;;;;;;18.85;16.10;;;;;;;;;;5589151;31;34685;-74
2023/12/13 06:17:37;;;;;;;21.67;17.52;;;;;;;;;;5588472;31;35287;-75
2023/12/13 06:20:40;;;;;;;16.62;14.38;;;;;;;;;;5588662;31;34692;-74
2023/12/13 06:23:42;;;;;;;17.73;15.68;;;;;;;;;;5588151;31;34718;-74
2023/12/13 06:26:45;;;;;;;21.02;17.05;;;;;;;;;;5588011;31;34608;-74
2023/12/13 06:29:48;;;;;;;19.10;15.88;;;;;;;;;;5588817;31;34836;-73
2023/12/13 06:32:50;;;;;;;18.73;15.35;;;;;;;;;;5588554;31;34595;-74
2023/12/13 06:35:53;;;;;;;20.67;16.05;;;;;;;;;;5588410;31;34423;-74
2023/12/13 06:38:55;;;;;;;22.17;17.08;;;;;;;;;;5588582;31;34548;-74
2023/12/13 06:41:58;;;;;;;19.35;15.32;;;;;;;;;;5588368;31;35306;-74
2023/12/13 06:45:00;;;;;;;17.60;15.65;;;;;;;;;;5588202;31;34715;-74
2023/12/13 06:48:04;;;;;;;17.55;15.05;;;;;;;;;;5587171;31;34681;-74
2023/12/13 06:51:10;;;;;;;18.65;15.88;;;;;;;;;;5587206;31;35407;-74
2023/12/13 06:54:13;;;;;;;18.48;15.50;;;;;;;;;;5587821;31;34821;-75
2023/12/13 06:57:16;;;;;;;17.52;14.57;;;;;;;;;;5588215;31;35230;-75
2023/12/13 07:00:21;;;;;;;19.37;15.70;;;;;;;;;;5587984;31;34756;-75
2023/12/13 07:03:24;;;;;;;17.90;15.70;;;;;;;;;;5588255;31;34705;-74
2023/12/13 07:06:27;;;;;;;20.58;16.52;;;;;;;;;;5588198;31;34576;-75
2023/12/13 07:09:30;;;;;;;22.75;17.02;;;;;;;;;;5587609;31;34477;-75
2023/12/13 07:12:33;;;;;;;20.73;17.15;;;;;;;;;;5588015;31;35257;-74
2023/12/13 07:15:37;;;;;;;19.60;16.92;;;;;;;;;;5587809;31;35344;-74
2023/12/13 07:18:39;;;;;;;20.35;15.95;;;;;;;;;;5588068;31;34415;-75
2023/12/13 07:21:42;;;;;;;19.62;16.20;;;;;;;;;;5587625;31;34902;-76
2023/12/13 07:24:46;;;;;;;18.55;15.82;;;;;;;;;;5588041;31;34646;-75
2023/12/13 07:27:48;;;;;;;19.95;15.98;;;;;;;;;;5587822;31;35206;-74
2023/12/13 07:30:51;;;;;;;23.95;15.40;;;;;;;;;;5587637;31;34756;-75
2023/12/13 07:34:11;;;;;;;18.67;14.93;;;;;;;;;;5587929;31;34635;-75
2023/12/13 07:37:13;;;;;;;26.65;15.05;;;;;;;;;;5587678;31;35397;-75
2023/12/13 07:40:16;;;;;;;19.27;13.00;;;;;;;;;;5587823;31;35256;-75
2023/12/13 07:43:19;;;;;;;16.00;12.73;;;;;;;;;;5588035;31;34731;-76
2023/12/13 07:46:22;;;;;;;17.48;12.93;;;;;;;;;;5587702;31;34611;-74
2023/12/13 07:49:25;;;;;;;13.02;10.70;;;;;;;;;;5588137;31;34672;-75
2023/12/13 07:52:27;;;;;;;12.55;10.25;;;;;;;;;;5587572;31;35476;-75
2023/12/13 07:55:30;;;;;;;16.17;11.15;;;;;;;;;;5587968;31;34583;-76
2023/12/13 07:58:33;;;;;;;12.02;8.40;;;;;;;;;;5587565;31;34606;-75
2023/12/13 08:01:36;;;;;;;10.48;8.63;;;;;;;;;;5587492;31;34623;-75
2023/12/13 08:04:42;;;;;;;10.57;8.82;;;;;;;;;;5587607;31;34502;-74
2023/12/13 08:07:45;;;;;;;10.02;8.25;;;;;;;;;;5587531;31;35259;-75
2023/12/13 08:10:49;;;;;;;11.18;8.30;;;;;;;;;;5587381;31;34630;-75
2023/12/13 08:13:52;;;;;;;9.43;8.30;;;;;;;;;;5587508;31;34846;-75
2023/12/13 08:16:55;;;;;;;13.15;8.77;;;;;;;;;;5587410;31;34681;-75
2023/12/13 08:19:59;;;;;;;12.10;8.48;;;;;;;;;;5587279;31;35311;-75
2023/12/13 08:23:05;;;;;;;22.37;14.25;;;;;;;;;;5587680;31;35245;-76
2023/12/13 08:26:12;;;;;;;9.95;7.68;;;;;;;;;;5587555;31;35363;-76
2023/12/13 08:29:15;;;;;;;10.35;7.65;;;;;;;;;;5587365;31;34640;-76
2023/12/13 08:32:17;;;;;;;8.80;7.68;;;;;;;;;;5587288;31;35304;-75
2023/12/13 08:35:20;;;;;;;8.07;6.75;;;;;;;;;;5587042;31;34473;-75
2023/12/13 08:38:23;;;;;;;9.48;7.43;;;;;;;;;;5587025;31;34661;-75
2023/12/13 08:41:27;;;;;;;9.13;7.50;;;;;;;;;;5587067;31;34645;-74
2023/12/13 08:44:30;;;;;;;11.23;7.25;;;;;;;;;;5586986;31;34542;-74
2023/12/13 08:47:32;;;;;;;9.45;7.20;;;;;;;;;;5587184;31;34906;-74
2023/12/13 08:50:36;;;;;;;10.50;7.28;;;;;;;;;;5589516;31;34556;-74
2023/12/13 08:53:48;;;;;;;11.23;7.83;;;;;;;;;;5589699;31;34702;-74
2023/12/13 08:56:52;;;;;;;10.93;8.98;;;;;;;;;;5589703;31;35270;-74
2023/12/13 08:59:55;;;;;;;11.52;8.57;;;;;;;;;;5589438;31;35369;-73
2023/12/13 09:03:08;;;;;;;14.05;9.85;;;;;;;;;;5589693;31;34558;-74
2023/12/13 09:06:14;;;;;;;12.13;10.18;;;;;;;;;;5589650;31;34650;-74
2023/12/13 09:09:17;;;;;;;14.68;11.05;;;;;;;;;;5589688;31;34542;-74
2023/12/13 09:12:20;;;;;;;16.48;11.85;;;;;;;;;;5589754;31;34753;-74
2023/12/13 09:15:22;;;;;;;15.57;12.00;;;;;;;;;;5589579;31;35454;-74
2023/12/13 09:18:29;;;;;;;16.62;12.90;;;;;;;;;;5589591;31;34978;-74
2023/12/13 09:21:32;;;;;;;17.02;12.60;;;;;;;;;;5588807;31;34602;-74
2023/12/13 09:24:35;;;;;;;18.00;12.68;;;;;;;;;;5589556;31;35348;-74
2023/12/13 09:27:37;;;;;;;18.70;14.05;;;;;;;;;;5589530;31;35490;-74
2023/12/13 09:30:40;;;;;;;18.60;13.62;;;;;;;;;;5589142;31;34673;-74
2023/12/13 09:33:42;;;;;;;18.10;12.27;;;;;;;;;;5589287;31;35445;-74
2023/12/13 09:36:45;;;;;;;19.45;13.23;;;;;;;;;;5589400;31;35310;-75
2023/12/13 09:39:48;;;;;;;21.50;13.18;;;;;;;;;;5588651;31;34565;-74
2023/12/13 09:42:51;;;;;;;16.55;12.45;;;;;;;;;;5589348;31;34626;-74
2023/12/13 09:45:54;;;;;;;11.52;9.43;;;;;;;;;;5589407;31;35333;-74
2023/12/13 09:48:57;;;;;;;13.88;9.55;;;;;;;;;;5589502;31;34757;-74
2023/12/13 09:52:01;;;;;;;12.95;9.00;;;;;;;;;;5589348;31;35243;-75
2023/12/13 09:55:07;;;;;;;10.30;8.27;;;;;;;;;;5589178;31;35524;-75
2023/12/13 09:58:11;;;;;;;10.32;7.90;;;;;;;;;;5588484;31;34482;-74
2023/12/13 10:01:16;;;;;;;12.70;8.93;;;;;;;;;;5589220;31;35443;-75
2023/12/13 10:04:19;;;;;;;10.13;8.32;;;;;;;;;;5588512;31;35347;-75
2023/12/13 10:07:21;;;;;;;13.50;8.52;;;;;;;;;;5588528;31;34623;-74
2023/12/13 10:10:31;;;;;;;13.23;9.25;;;;;;;;;;5589103;31;34594;-75
2023/12/13 10:13:34;;;;;;;13.25;9.60;;;;;;;;;;5589061;31;34712;-74
2023/12/13 10:16:39;;;;;;;13.30;10.23;;;;;;;;;;5588842;31;34931;-74
2023/12/13 10:19:43;;;;;;;14.20;9.48;;;;;;;;;;5588818;31;34810;-75
2023/12/13 10:22:45;;;;;;;12.48;10.43;;;;;;;;;;5588818;31;34623;-75
2023/12/13 10:25:52;;;;;;;10.30;9.05;;;;;;;;;;5588996;31;34875;-76
2023/12/13 10:28:59;;;;;;;11.77;9.43;;;;;;;;;;5589387;31;35379;-73
2023/12/13 10:32:18;;;;;;;14.77;9.38;;;;;;;;;;5589323;31;34611;-74
2023/12/13 10:35:22;;;;;;;13.50;9.85;;;;;;;;;;5589169;31;34753;-73
2023/12/13 10:38:29;;;;;;;13.25;9.18;;;;;;;;;;5588612;31;34901;-74
2023/12/13 10:41:32;;;;;;;11.48;8.10;;;;;;;;;;5588883;31;34724;-74
2023/12/13 10:44:36;;;;;;;12.65;8.60;;;;;;;;;;5589227;31;34922;-74
2023/12/13 10:47:45;;;;;;;11.40;9.02;;;;;;;;;;5589123;31;34863;-74
2023/12/13 10:50:49;;;;;;;12.82;9.13;;;;;;;;;;5590432;31;34335;-73
2023/12/13 10:53:54;;;;;;;11.27;9.35;;;;;;;;;;5593357;31;35539;-74
2023/12/13 10:56:56;;;;;;;13.80;10.25;;;;;;;;;;5591462;31;34753;-74
2023/12/13 11:00:04;;;;;;;12.75;10.05;;;;;;;;;;5588605;31;33010;-74
2023/12/13 11:03:29;;;;;;;12.05;9.52;;;;;;;;;;5588784;31;34663;-73
2023/12/13 11:06:33;;;;;;;12.88;10.38;;;;;;;;;;5588611;31;34708;-72
2023/12/13 11:09:48;;;;;;;12.18;9.80;;;;;;;;;;5588689;31;34517;-73
2023/12/13 11:12:51;;;;;;;13.30;10.32;;;;;;;;;;5588033;31;34546;-73
2023/12/13 11:15:54;;;;;;;12.77;10.55;;;;;;;;;;5588728;31;34487;-74
2023/12/13 11:18:59;;;;;;;14.05;10.75;;;;;;;;;;5588536;31;34845;-73
2023/12/13 11:22:09;;;;;;;12.93;9.52;;;;;;;;;;5588713;31;34836;-74
2023/12/13 11:25:12;;;;;;;13.20;9.95;;;;;;;;;;5588624;31;35346;-73
2023/12/13 11:28:22;;;;;;;11.68;9.95;;;;;;;;;;5588213;31;35080;-73
2023/12/13 11:31:25;;;;;;;12.30;9.97;;;;;;;;;;5588303;31;34238;-73
2023/12/13 11:34:34;;;;;;;14.15;11.05;;;;;;;;;;5588167;31;35304;-73
2023/12/13 11:37:37;;;;;;;14.40;11.63;;;;;;;;;;5588558;31;34642;-73
2023/12/13 11:40:40;;;;;;;13.62;12.23;;;;;;;;;;5588184;31;35414;-73
2023/12/13 11:43:44;;;;;;;13.88;12.25;;;;;;;;;;5588372;31;34570;-73
2023/12/13 11:46:53;;;;;;;15.10;11.32;;;;;;;;;;5588071;31;34489;-73
2023/12/13 11:49:56;;;;;;;13.62;11.57;;;;;;;;;;5588156;31;34870;-73
2023/12/13 11:52:59;;;;;;;12.93;11.25;;;;;;;;;;5587971;31;35434;-74
2023/12/13 11:56:07;;;;;;;15.00;12.05;;;;;;;;;;5588352;31;35218;-73
2023/12/13 11:59:10;;;;;;;14.85;13.00;;;;;;;;;;5587799;31;35331;-73
2023/12/13 12:02:16;;;;;;;17.08;14.50;;;;;;;;;;5588509;31;32873;-71
2023/12/13 12:05:21;;;;;;;19.37;15.38;;;;;;;;;;5588831;31;34878;-73
2023/12/13 12:08:24;;;;;;;17.62;15.52;;;;;;;;;;5588115;31;34778;-73
2023/12/13 12:11:27;;;;;;;19.27;15.65;;;;;;;;;;5587413;31;35231;-73
2023/12/13 12:14:30;;;;;;;17.00;14.75;;;;;;;;;;5587656;31;35444;-72
2023/12/13 12:17:33;;;;;;;18.52;14.23;;;;;;;;;;5586739;31;35378;-72
2023/12/13 12:20:36;;;;;;;16.92;13.40;;;;;;;;;;5587359;31;35516;-72
2023/12/13 12:23:40;;;;;;;17.92;13.32;;;;;;;;;;5588510;31;34669;-72
2023/12/13 12:26:42;;;;;;;17.95;12.40;;;;;;;;;;5589915;31;34523;-73
2023/12/13 12:29:45;;;;;;;16.35;12.25;;;;;;;;;;5589216;31;34634;-73
2023/12/13 12:32:47;;;;;;;16.05;12.25;;;;;;;;;;5588507;31;34758;-74
2023/12/13 12:35:50;;;;;;;14.98;11.38;;;;;;;;;;5589769;31;34650;-73
2023/12/13 12:38:52;;;;;;;14.30;11.50;;;;;;;;;;5590020;31;34606;-75
2023/12/13 12:41:55;;;;;;;14.77;12.00;;;;;;;;;;5589806;31;35325;-73
2023/12/13 12:44:58;;;;;;;15.85;12.37;;;;;;;;;;5589590;31;34745;-73
2023/12/13 12:48:00;;;;;;;17.20;13.45;;;;;;;;;;5589693;31;35357;-73
2023/12/13 12:51:03;;;;;;;20.05;13.88;;;;;;;;;;5588833;31;34687;-73
2023/12/13 12:54:07;;;;;;;19.20;14.48;;;;;;;;;;5588996;31;35359;-73
2023/12/13 12:57:09;;;;;;;18.33;14.77;;;;;;;;;;5589203;31;35422;-74
2023/12/13 13:00:12;;;;;;;16.37;13.88;;;;;;;;;;5589741;31;34471;-74
2023/12/13 13:03:15;;;;;;;21.20;14.80;;;;;;;;;;5589847;31;34238;-74
2023/12/13 13:06:18;;;;;;;24.52;16.25;;;;;;;;;;5589091;31;35401;-74
2023/12/13 13:09:20;;;;;;;24.02;18.00;;;;;;;;;;5589321;31;35343;-74
2023/12/13 13:12:23;;;;;;;27.50;19.65;;;;;;;;;;5589358;31;35261;-74
2023/12/13 13:15:26;;;;;;;27.00;18.60;;;;;;;;;;5588959;31;34929;-74
2023/12/13 13:18:29;;;;;;;27.17;19.70;;;;;;;;;;5588455;31;35350;-74
2023/12/13 13:21:34;;;;;;;30.88;20.83;;;;;;;;;;5589375;31;35435;-74
2023/12/13 13:24:37;;;;;;;33.00;21.20;;;;;;;;;;5588951;31;34584;-74
2023/12/13 13:27:39;;;;;;;32.28;21.77;;;;;;;;;;5589340;31;34585;-74
2023/12/13 13:30:42;;;;;;;36.95;23.55;;;;;;;;;;5589158;31;35341;-76
2023/12/13 13:33:45;;;;;;;40.10;24.37;;;;;;;;;;5588665;31;35256;-74
2023/12/13 13:36:48;;;;;;;36.10;23.70;;;;;;;;;;5589173;31;34466;-76
2023/12/13 13:39:50;;;;;;;36.33;23.87;;;;;;;;;;5589039;31;35428;-76
2023/12/13 13:42:54;;;;;;;36.33;23.58;;;;;;;;;;5588736;31;35260;-74
2023/12/13 13:45:56;;;;;;;35.22;24.10;;;;;;;;;;5588739;31;34875;-75
2023/12/13 13:48:59;;;;;;;37.60;24.35;;;;;;;;;;5588778;31;34831;-75
2023/12/13 13:52:01;;;;;;;33.38;22.83;;;;;;;;;;5589032;31;35218;-74
2023/12/13 13:55:07;;;;;;;37.03;23.85;;;;;;;;;;5587944;31;34667;-74
2023/12/13 13:58:10;;;;;;;36.67;23.10;;;;;;;;;;5588382;31;34647;-75
2023/12/13 14:01:13;;;;;;;38.13;24.12;;;;;;;;;;5588910;31;35355;-75
2023/12/13 14:04:16;;;;;;;37.45;24.23;;;;;;;;;;5588721;31;34377;-75
2023/12/13 14:07:18;;;;;;;34.83;22.33;;;;;;;;;;5588544;31;35247;-75
2023/12/13 14:10:21;;;;;;;32.97;21.65;;;;;;;;;;5588478;31;34587;-74
2023/12/13 14:13:24;;;;;;;34.05;23.00;;;;;;;;;;5588735;31;34652;-75
2023/12/13 14:16:26;;;;;;;38.42;23.87;;;;;;;;;;5588761;31;34629;-75
2023/12/13 14:19:29;;;;;;;40.10;24.05;;;;;;;;;;5588514;31;34592;-75
2023/12/13 14:22:32;;;;;;;36.33;24.08;;;;;;;;;;5588184;31;35338;-74
2023/12/13 14:25:34;;;;;;;39.30;24.02;;;;;;;;;;5588468;31;34551;-74
2023/12/13 14:28:37;;;;;;;36.28;23.62;;;;;;;;;;5588607;31;35236;-75
2023/12/13 14:31:40;;;;;;;35.35;22.30;;;;;;;;;;5588199;31;34750;-75
2023/12/13 14:34:43;;;;;;;38.08;22.85;;;;;;;;;;5588094;31;35402;-75
2023/12/13 14:37:45;;;;;;;37.10;23.80;;;;;;;;;;5588234;31;35597;-75
2023/12/13 14:40:48;;;;;;;36.65;24.37;;;;;;;;;;5588313;31;34612;-76
2023/12/13 14:43:50;;;;;;;39.75;24.90;;;;;;;;;;5588064;31;34615;-76
2023/12/13 14:46:53;;;;;;;36.80;24.25;;;;;;;;;;5587211;31;35245;-76
2023/12/13 14:49:55;;;;;;;42.45;26.52;;;;;;;;;;5588119;31;34673;-76
2023/12/13 14:53:00;;;;;;;40.40;26.45;;;;;;;;;;5588538;31;34389;-76
2023/12/13 14:56:03;;;;;;;42.13;26.67;;;;;;;;;;5588139;31;35400;-76
2023/12/13 14:59:06;;;;;;;45.17;26.48;;;;;;;;;;5588261;31;34539;-76
2023/12/13 15:02:08;;;;;;;42.60;26.83;;;;;;;;;;5588171;31;34619;-76
2023/12/13 15:05:12;;;;;;;44.60;26.08;;;;;;;;;;5587328;31;34632;-76
2023/12/13 15:08:17;;;;;;;47.60;27.77;;;;;;;;;;5588263;31;35473;-77
2023/12/13 15:11:20;;;;;;;53.40;30.33;;;;;;;;;;5588523;31;34874;-77
2023/12/13 15:14:25;;;;;;;55.03;28.60;;;;;;;;;;5588046;31;34483;-76
2023/12/13 15:17:28;;;;;;;57.88;29.50;;;;;;;;;;5587183;31;34623;-77
2023/12/13 15:20:30;;;;;;;64.05;30.37;;;;;;;;;;5587994;31;35525;-77
2023/12/13 15:23:33;;;;;;;65.95;31.02;;;;;;;;;;5588118;31;34316;-76
2023/12/13 15:26:35;;;;;;;67.97;30.65;;;;;;;;;;5587971;31;34596;-76
2023/12/13 15:29:38;;;;;;;61.50;28.35;;;;;;;;;;5587957;31;34700;-76
2023/12/13 15:32:42;;;;;;;74.15;30.58;;;;;;;;;;5587708;31;34794;-76
2023/12/13 15:35:46;;;;;;;71.03;30.90;;;;;;;;;;5587606;31;34818;-76
2023/12/13 15:38:49;;;;;;;76.40;30.65;;;;;;;;;;5588335;31;35063;-76
2023/12/13 15:41:52;;;;;;;79.55;31.45;;;;;;;;;;5587801;31;34847;-76
2023/12/13 15:44:54;;;;;;;65.97;28.58;;;;;;;;;;5587398;31;35342;-76
2023/12/13 15:47:57;;;;;;;82.82;30.17;;;;;;;;;;5587790;31;34642;-76
2023/12/13 15:50:59;;;;;;;87.70;32.10;;;;;;;;;;5587886;31;34631;-78
2023/12/13 15:54:02;;;;;;;101.62;32.28;;;;;;;;;;5587736;31;35455;-76
2023/12/13 15:57:04;;;;;;;83.00;30.10;;;;;;;;;;5587513;31;35336;-76
2023/12/13 16:00:07;;;;;;;91.50;31.20;;;;;;;;;;5587645;31;34812;-76
2023/12/13 16:03:12;;;;;;;106.80;35.92;;;;;;;;;;5587622;31;35386;-77
2023/12/13 16:06:15;;;;;;;131.43;37.30;;;;;;;;;;5587633;31;35391;-76
2023/12/13 16:09:18;;;;;;;102.05;32.80;;;;;;;;;;5587548;31;35356;-77
2023/12/13 16:12:21;;;;;;;92.10;32.55;;;;;;;;;;5587271;31;34576;-77
2023/12/13 16:15:25;;;;;;;119.40;34.42;;;;;;;;;;5587340;31;34485;-76
2023/12/13 16:18:28;;;;;;;94.53;31.98;;;;;;;;;;5587171;31;35250;-77
2023/12/13 16:21:31;;;;;;;100.57;35.42;;;;;;;;;;5587727;31;35284;-77
2023/12/13 16:24:36;;;;;;;124.80;38.08;;;;;;;;;;5587316;31;34737;-77
2023/12/13 16:27:38;;;;;;;111.18;38.42;;;;;;;;;;5586942;31;34581;-77
2023/12/13 16:30:42;;;;;;;109.05;37.15;;;;;;;;;;5587236;31;34645;-77
2023/12/13 16:33:46;;;;;;;114.55;39.00;;;;;;;;;;5586702;31;34532;-77
2023/12/13 16:36:51;;;;;;;104.72;38.10;;;;;;;;;;5587251;31;35247;-77
2023/12/13 16:39:53;;;;;;;95.95;36.42;;;;;;;;;;5587079;31;35431;-77
2023/12/13 16:42:59;;;;;;;85.78;34.75;;;;;;;;;;5587157;31;34782;-77
2023/12/13 16:46:01;;;;;;;85.70;36.05;;;;;;;;;;5587076;31;34600;-77
2023/12/13 16:49:04;;;;;;;70.75;33.88;;;;;;;;;;5587517;31;35345;-77
2023/12/13 16:52:07;;;;;;;69.78;33.97;;;;;;;;;;5586614;31;34762;-77
2023/12/13 16:55:09;;;;;;;64.37;33.10;;;;;;;;;;5586913;31;35322;-77
2023/12/13 16:58:12;;;;;;;59.33;33.33;;;;;;;;;;5586943;31;34765;-77
2023/12/13 17:01:15;;;;;;;59.88;33.47;;;;;;;;;;5586788;31;35374;-77
2023/12/13 17:04:17;;;;;;;56.17;31.17;;;;;;;;;;5586675;31;34601;-77
2023/12/13 17:07:23;;;;;;;51.08;28.75;;;;;;;;;;5586521;31;34480;-77
2023/12/13 17:10:30;;;;;;;51.45;28.52;;;;;;;;;;5588802;31;34434;-77
2023/12/13 17:13:33;;;;;;;45.63;27.58;;;;;;;;;;5589449;31;34845;-77
2023/12/13 17:16:36;;;;;;;50.85;29.55;;;;;;;;;;5589018;31;34342;-77
2023/12/13 17:19:41;;;;;;;49.50;29.60;;;;;;;;;;5589539;31;35332;-77
2023/12/13 17:22:43;;;;;;;47.88;29.42;;;;;;;;;;5589500;31;34758;-77
2023/12/13 17:25:47;;;;;;;47.42;30.42;;;;;;;;;;5589361;31;34757;-77
2023/12/13 17:28:49;;;;;;;49.28;30.95;;;;;;;;;;5589467;31;34674;-77
2023/12/13 17:31:52;;;;;;;47.72;30.20;;;;;;;;;;5589382;31;35330;-77
2023/12/13 17:34:55;;;;;;;50.97;30.73;;;;;;;;;;5589305;31;34188;-77
2023/12/13 17:37:58;;;;;;;51.20;30.92;;;;;;;;;;5589280;31;34635;-77
2023/12/13 17:41:00;;;;;;;52.13;31.35;;;;;;;;;;5588864;31;35306;-77
2023/12/13 17:44:03;;;;;;;54.90;33.17;;;;;;;;;;5589539;31;34728;-77
2023/12/13 17:47:06;;;;;;;53.45;32.33;;;;;;;;;;5589186;31;34455;-77
2023/12/13 17:50:09;;;;;;;56.55;31.70;;;;;;;;;;5589187;31;35337;-76